Pagrindinis puslapis
METAR-TAF:

METAR-TAF

Oro uostai :

Mihailo Kogelničanu tarptautinis oro uostas

Konstanca, Rumunija

platuma: 44-20N, ilguma: 028-26E, Aukštis: 97 m

Dabartinis oras

Ataskaita buvo paskelbta 19 minutes, ne 18:30 UTC
Vėjas 2 kt iš Pietų
Temperatūra 2°C
Drėgmė 100%
Slėgis 1033 hPa
Matomumas: 7000 m

METAR: LRCK 161830Z 17002KT 7000 NSC 02/02 Q1033 TEMPO 5000 BR

Laikas: 20:49 (18:49 UTC)

Prognozė

Ataskaita buvo paskelbta 1 valandą ir 49 minutes, ne 17:00 UTC
Prognozė galioja nuo 16 metu 18 UTC su 17 metu 18 UTC
Vėjas 4 kt nuo kintamojo kryptimis
Matomumas: 5000 m
rūkana
Laikinai
nuo 16 metu 21 UTC su 17 metu 05 UTC
Matomumas: 1500 m
rūkana
Tapsmas
nuo 17 metu 05 UTC su 17 metu 07 UTC
Matomumas 10 km arba daugiau
Tapsmas
nuo 17 metu 06 UTC su 17 metu 08 UTC
Vėjas 12 kt iš Pietų

TAF: LRCK 161700Z 1618/1718 VRB04KT 5000 BR NSC TEMPO 1621/1705 1500 BR BECMG 1705/1707 9999 NSW BECMG 1706/1708 18012KT

Orai ataskaitas ir orų prognozės (METAR, TAF).

turimą stotys yra geltonos ir raudonos taškus žemėlapyje.

Perkelti pele per norėdami pamatyti stoties vardą.

Tada spustelėkite, norėdami matyti oro stebėjimo ir prognozės.

Norėdami pakeisti žemėlapį: spustelėkite ant žalios mygtukų su juodo kryžiaus žemyn,; žalią mygtuką su brūkšneliu, jei norite nutolinti; arba žalių rodyklių gretimoms žemėlapius.


METAR-TAF: